sensor_id;sensor_type;location;lat;lon;timestamp;P1;durP1;ratioP1;P2;durP2;ratioP2
177;SDS011;77;48.792;9.032;2023-03-01T00:00:25;38.00;;;19.70;;
177;SDS011;77;48.792;9.032;2023-03-01T00:02:50;33.87;;;19.63;;
177;SDS011;77;48.792;9.032;2023-03-01T00:05:16;37.90;;;19.20;;
177;SDS011;77;48.792;9.032;2023-03-01T00:07:41;38.07;;;19.63;;
177;SDS011;77;48.792;9.032;2023-03-01T00:10:08;35.60;;;19.67;;
177;SDS011;77;48.792;9.032;2023-03-01T00:12:34;39.28;;;21.33;;
177;SDS011;77;48.792;9.032;2023-03-01T00:14:59;37.47;;;20.77;;
177;SDS011;77;48.792;9.032;2023-03-01T00:17:24;37.70;;;19.70;;
177;SDS011;77;48.792;9.032;2023-03-01T00:19:49;41.57;;;21.30;;
177;SDS011;77;48.792;9.032;2023-03-01T00:22:14;38.37;;;21.47;;
177;SDS011;77;48.792;9.032;2023-03-01T00:24:39;39.43;;;19.73;;
177;SDS011;77;48.792;9.032;2023-03-01T00:27:06;40.00;;;20.83;;
177;SDS011;77;48.792;9.032;2023-03-01T00:29:31;37.65;;;20.50;;
177;SDS011;77;48.792;9.032;2023-03-01T00:31:56;42.83;;;20.60;;
177;SDS011;77;48.792;9.032;2023-03-01T00:34:22;39.10;;;20.13;;
177;SDS011;77;48.792;9.032;2023-03-01T00:36:47;40.23;;;20.53;;
177;SDS011;77;48.792;9.032;2023-03-01T00:39:15;38.43;;;20.10;;
177;SDS011;77;48.792;9.032;2023-03-01T00:41:41;37.15;;;19.90;;
177;SDS011;77;48.792;9.032;2023-03-01T00:44:07;36.03;;;19.60;;
177;SDS011;77;48.792;9.032;2023-03-01T00:46:33;38.70;;;19.40;;
177;SDS011;77;48.792;9.032;2023-03-01T00:48:58;35.47;;;18.83;;
177;SDS011;77;48.792;9.032;2023-03-01T00:51:24;37.63;;;19.80;;
177;SDS011;77;48.792;9.032;2023-03-01T00:53:49;37.97;;;19.92;;
177;SDS011;77;48.792;9.032;2023-03-01T00:56:15;39.80;;;19.83;;
177;SDS011;77;48.792;9.032;2023-03-01T00:58:40;40.40;;;19.90;;
177;SDS011;77;48.792;9.032;2023-03-01T01:01:11;35.57;;;18.97;;
177;SDS011;77;48.792;9.032;2023-03-01T01:03:36;39.70;;;20.58;;
177;SDS011;77;48.792;9.032;2023-03-01T01:06:01;40.90;;;20.20;;
177;SDS011;77;48.792;9.032;2023-03-01T01:08:27;38.13;;;20.60;;
177;SDS011;77;48.792;9.032;2023-03-01T01:10:52;38.87;;;19.80;;
177;SDS011;77;48.792;9.032;2023-03-01T01:13:17;42.80;;;20.87;;
177;SDS011;77;48.792;9.032;2023-03-01T01:15:43;37.55;;;20.35;;
177;SDS011;77;48.792;9.032;2023-03-01T01:18:10;38.57;;;20.40;;
177;SDS011;77;48.792;9.032;2023-03-01T01:20:35;37.15;;;19.45;;
177;SDS011;77;48.792;9.032;2023-03-01T01:23:00;38.90;;;19.43;;
177;SDS011;77;48.792;9.032;2023-03-01T01:25:26;43.30;;;21.60;;
177;SDS011;77;48.792;9.032;2023-03-01T01:27:51;41.53;;;20.30;;
177;SDS011;77;48.792;9.032;2023-03-01T01:30:16;35.40;;;19.50;;
177;SDS011;77;48.792;9.032;2023-03-01T01:32:41;39.00;;;20.50;;
177;SDS011;77;48.792;9.032;2023-03-01T01:35:08;38.70;;;20.73;;
177;SDS011;77;48.792;9.032;2023-03-01T01:37:34;39.80;;;20.42;;
177;SDS011;77;48.792;9.032;2023-03-01T01:39:59;42.40;;;20.60;;
177;SDS011;77;48.792;9.032;2023-03-01T01:42:25;38.83;;;20.33;;
177;SDS011;77;48.792;9.032;2023-03-01T01:47:30;39.25;;;19.90;;
177;SDS011;77;48.792;9.032;2023-03-01T01:49:56;35.23;;;19.43;;
177;SDS011;77;48.792;9.032;2023-03-01T01:52:23;37.97;;;19.23;;
177;SDS011;77;48.792;9.032;2023-03-01T01:54:50;37.80;;;19.95;;
177;SDS011;77;48.792;9.032;2023-03-01T01:57:18;38.00;;;19.75;;
177;SDS011;77;48.792;9.032;2023-03-01T01:59:45;40.95;;;19.08;;
177;SDS011;77;48.792;9.032;2023-03-01T02:02:12;40.45;;;21.40;;
177;SDS011;77;48.792;9.032;2023-03-01T02:04:37;38.60;;;20.03;;
177;SDS011;77;48.792;9.032;2023-03-01T02:07:04;39.57;;;19.93;;
177;SDS011;77;48.792;9.032;2023-03-01T02:09:32;37.17;;;19.52;;
177;SDS011;77;48.792;9.032;2023-03-01T02:11:58;37.83;;;19.75;;
177;SDS011;77;48.792;9.032;2023-03-01T02:14:24;38.60;;;20.60;;
177;SDS011;77;48.792;9.032;2023-03-01T02:16:49;40.80;;;21.13;;
177;SDS011;77;48.792;9.032;2023-03-01T02:19:17;36.67;;;19.97;;
177;SDS011;77;48.792;9.032;2023-03-01T02:21:45;38.17;;;19.83;;
177;SDS011;77;48.792;9.032;2023-03-01T02:24:17;37.72;;;20.23;;
177;SDS011;77;48.792;9.032;2023-03-01T02:26:46;41.00;;;21.30;;
177;SDS011;77;48.792;9.032;2023-03-01T02:29:14;40.38;;;21.02;;
177;SDS011;77;48.792;9.032;2023-03-01T02:31:40;39.35;;;20.63;;
177;SDS011;77;48.792;9.032;2023-03-01T02:34:05;40.93;;;20.50;;
177;SDS011;77;48.792;9.032;2023-03-01T02:36:31;38.10;;;20.13;;
177;SDS011;77;48.792;9.032;2023-03-01T02:38:59;38.85;;;20.33;;
177;SDS011;77;48.792;9.032;2023-03-01T02:41:26;36.35;;;20.30;;
177;SDS011;77;48.792;9.032;2023-03-01T02:43:52;37.15;;;20.38;;
177;SDS011;77;48.792;9.032;2023-03-01T02:46:20;39.07;;;19.60;;
177;SDS011;77;48.792;9.032;2023-03-01T02:48:46;39.40;;;18.73;;
177;SDS011;77;48.792;9.032;2023-03-01T02:51:21;39.37;;;20.97;;
177;SDS011;77;48.792;9.032;2023-03-01T02:53:48;38.13;;;20.30;;
177;SDS011;77;48.792;9.032;2023-03-01T02:56:16;38.05;;;20.20;;
177;SDS011;77;48.792;9.032;2023-03-01T02:58:41;38.50;;;20.13;;
177;SDS011;77;48.792;9.032;2023-03-01T03:01:07;38.80;;;20.42;;
177;SDS011;77;48.792;9.032;2023-03-01T03:03:34;37.97;;;20.27;;
177;SDS011;77;48.792;9.032;2023-03-01T03:05:59;43.63;;;21.00;;
177;SDS011;77;48.792;9.032;2023-03-01T03:08:24;40.77;;;21.13;;
177;SDS011;77;48.792;9.032;2023-03-01T03:10:49;41.77;;;20.50;;
177;SDS011;77;48.792;9.032;2023-03-01T03:13:15;39.30;;;20.90;;
177;SDS011;77;48.792;9.032;2023-03-01T03:15:40;38.30;;;20.50;;
177;SDS011;77;48.792;9.032;2023-03-01T03:18:06;39.97;;;20.45;;
177;SDS011;77;48.792;9.032;2023-03-01T03:20:33;36.53;;;20.77;;
177;SDS011;77;48.792;9.032;2023-03-01T03:22:58;36.05;;;19.77;;
177;SDS011;77;48.792;9.032;2023-03-01T03:25:24;43.17;;;21.00;;
177;SDS011;77;48.792;9.032;2023-03-01T03:27:50;37.77;;;20.77;;
177;SDS011;77;48.792;9.032;2023-03-01T03:30:16;41.67;;;21.63;;
177;SDS011;77;48.792;9.032;2023-03-01T03:32:42;36.42;;;20.55;;
177;SDS011;77;48.792;9.032;2023-03-01T03:35:08;41.55;;;21.02;;
177;SDS011;77;48.792;9.032;2023-03-01T03:37:35;39.03;;;20.35;;
177;SDS011;77;48.792;9.032;2023-03-01T03:40:00;37.88;;;20.85;;
177;SDS011;77;48.792;9.032;2023-03-01T03:42:26;40.17;;;21.83;;
177;SDS011;77;48.792;9.032;2023-03-01T03:44:51;39.57;;;21.07;;
177;SDS011;77;48.792;9.032;2023-03-01T03:47:16;39.77;;;21.50;;
177;SDS011;77;48.792;9.032;2023-03-01T03:49:41;40.47;;;21.10;;
177;SDS011;77;48.792;9.032;2023-03-01T03:52:06;39.80;;;21.07;;
177;SDS011;77;48.792;9.032;2023-03-01T03:54:33;39.70;;;20.83;;
177;SDS011;77;48.792;9.032;2023-03-01T03:56:58;36.88;;;20.98;;
177;SDS011;77;48.792;9.032;2023-03-01T03:59:23;41.77;;;22.30;;
177;SDS011;77;48.792;9.032;2023-03-01T04:01:48;42.20;;;22.37;;
177;SDS011;77;48.792;9.032;2023-03-01T04:04:14;41.37;;;21.67;;
177;SDS011;77;48.792;9.032;2023-03-01T04:06:39;42.33;;;22.30;;
177;SDS011;77;48.792;9.032;2023-03-01T04:09:04;38.33;;;20.90;;
177;SDS011;77;48.792;9.032;2023-03-01T04:11:31;38.83;;;20.60;;
177;SDS011;77;48.792;9.032;2023-03-01T04:13:56;41.63;;;22.15;;
177;SDS011;77;48.792;9.032;2023-03-01T04:16:22;43.77;;;22.23;;
177;SDS011;77;48.792;9.032;2023-03-01T04:18:47;41.67;;;22.10;;
177;SDS011;77;48.792;9.032;2023-03-01T04:21:12;40.97;;;21.80;;
177;SDS011;77;48.792;9.032;2023-03-01T04:23:38;44.40;;;22.10;;
177;SDS011;77;48.792;9.032;2023-03-01T04:26:04;37.43;;;20.10;;
177;SDS011;77;48.792;9.032;2023-03-01T04:28:31;40.37;;;22.00;;
177;SDS011;77;48.792;9.032;2023-03-01T04:30:57;40.08;;;21.60;;
177;SDS011;77;48.792;9.032;2023-03-01T04:33:24;43.77;;;22.00;;
177;SDS011;77;48.792;9.032;2023-03-01T04:35:49;39.88;;;21.17;;
177;SDS011;77;48.792;9.032;2023-03-01T04:38:15;42.97;;;22.17;;
177;SDS011;77;48.792;9.032;2023-03-01T04:40:40;41.40;;;21.97;;
177;SDS011;77;48.792;9.032;2023-03-01T04:43:05;46.50;;;21.20;;
177;SDS011;77;48.792;9.032;2023-03-01T04:45:33;40.73;;;22.10;;
177;SDS011;77;48.792;9.032;2023-03-01T04:47:58;42.80;;;22.15;;
177;SDS011;77;48.792;9.032;2023-03-01T04:50:23;40.10;;;21.53;;
177;SDS011;77;48.792;9.032;2023-03-01T04:52:48;38.20;;;20.90;;
177;SDS011;77;48.792;9.032;2023-03-01T04:55:14;41.80;;;21.27;;
177;SDS011;77;48.792;9.032;2023-03-01T04:57:39;40.73;;;21.33;;
177;SDS011;77;48.792;9.032;2023-03-01T05:00:05;39.53;;;21.27;;
177;SDS011;77;48.792;9.032;2023-03-01T05:04:58;42.47;;;23.20;;
177;SDS011;77;48.792;9.032;2023-03-01T05:07:23;44.47;;;22.40;;
177;SDS011;77;48.792;9.032;2023-03-01T05:09:49;38.13;;;21.53;;
177;SDS011;77;48.792;9.032;2023-03-01T05:12:14;42.30;;;21.40;;
177;SDS011;77;48.792;9.032;2023-03-01T05:14:39;41.13;;;22.37;;
177;SDS011;77;48.792;9.032;2023-03-01T05:17:05;41.37;;;22.23;;
177;SDS011;77;48.792;9.032;2023-03-01T05:19:30;42.83;;;22.60;;
177;SDS011;77;48.792;9.032;2023-03-01T05:21:57;41.10;;;21.77;;
177;SDS011;77;48.792;9.032;2023-03-01T05:24:22;41.78;;;22.80;;
177;SDS011;77;48.792;9.032;2023-03-01T05:26:47;43.80;;;22.43;;
177;SDS011;77;48.792;9.032;2023-03-01T05:29:12;45.70;;;22.53;;
177;SDS011;77;48.792;9.032;2023-03-01T05:31:38;43.30;;;22.80;;
177;SDS011;77;48.792;9.032;2023-03-01T05:34:03;44.63;;;21.60;;
177;SDS011;77;48.792;9.032;2023-03-01T05:36:28;41.70;;;22.00;;
177;SDS011;77;48.792;9.032;2023-03-01T05:38:54;41.63;;;22.40;;
177;SDS011;77;48.792;9.032;2023-03-01T05:41:20;41.95;;;21.95;;
177;SDS011;77;48.792;9.032;2023-03-01T05:43:45;41.10;;;22.70;;
177;SDS011;77;48.792;9.032;2023-03-01T05:46:10;43.03;;;22.80;;
177;SDS011;77;48.792;9.032;2023-03-01T05:48:35;44.40;;;23.30;;
177;SDS011;77;48.792;9.032;2023-03-01T05:51:00;45.37;;;23.10;;
177;SDS011;77;48.792;9.032;2023-03-01T05:53:26;40.97;;;22.47;;
177;SDS011;77;48.792;9.032;2023-03-01T05:55:52;42.30;;;21.87;;
177;SDS011;77;48.792;9.032;2023-03-01T05:58:18;51.72;;;23.48;;
177;SDS011;77;48.792;9.032;2023-03-01T06:00:44;44.07;;;22.30;;
177;SDS011;77;48.792;9.032;2023-03-01T06:03:10;43.30;;;22.30;;
177;SDS011;77;48.792;9.032;2023-03-01T06:05:35;42.63;;;22.73;;
177;SDS011;77;48.792;9.032;2023-03-01T06:08:01;44.13;;;23.00;;
177;SDS011;77;48.792;9.032;2023-03-01T06:10:26;40.07;;;22.47;;
177;SDS011;77;48.792;9.032;2023-03-01T06:12:53;40.83;;;23.00;;
177;SDS011;77;48.792;9.032;2023-03-01T06:15:18;44.40;;;22.95;;
177;SDS011;77;48.792;9.032;2023-03-01T06:17:44;42.80;;;23.20;;
177;SDS011;77;48.792;9.032;2023-03-01T06:20:11;42.28;;;22.60;;
177;SDS011;77;48.792;9.032;2023-03-01T06:22:36;44.13;;;23.38;;
177;SDS011;77;48.792;9.032;2023-03-01T06:25:02;44.60;;;23.57;;
177;SDS011;77;48.792;9.032;2023-03-01T06:27:27;41.90;;;22.50;;
177;SDS011;77;48.792;9.032;2023-03-01T06:29:54;42.53;;;23.03;;
177;SDS011;77;48.792;9.032;2023-03-01T06:32:19;43.40;;;23.10;;
177;SDS011;77;48.792;9.032;2023-03-01T06:34:45;41.13;;;23.00;;
177;SDS011;77;48.792;9.032;2023-03-01T06:37:10;45.67;;;21.77;;
177;SDS011;77;48.792;9.032;2023-03-01T06:39:35;42.60;;;21.90;;
177;SDS011;77;48.792;9.032;2023-03-01T06:42:01;40.27;;;22.97;;
177;SDS011;77;48.792;9.032;2023-03-01T06:44:26;48.40;;;23.97;;
177;SDS011;77;48.792;9.032;2023-03-01T06:46:53;45.63;;;22.73;;
177;SDS011;77;48.792;9.032;2023-03-01T06:49:18;49.28;;;23.25;;
177;SDS011;77;48.792;9.032;2023-03-01T06:51:43;43.07;;;22.73;;
177;SDS011;77;48.792;9.032;2023-03-01T06:54:09;46.03;;;24.17;;
177;SDS011;77;48.792;9.032;2023-03-01T06:56:34;43.50;;;23.23;;
177;SDS011;77;48.792;9.032;2023-03-01T06:59:00;43.37;;;23.00;;
177;SDS011;77;48.792;9.032;2023-03-01T07:01:25;48.83;;;24.43;;
177;SDS011;77;48.792;9.032;2023-03-01T07:03:51;42.43;;;22.77;;
177;SDS011;77;48.792;9.032;2023-03-01T07:06:17;42.70;;;22.00;;
177;SDS011;77;48.792;9.032;2023-03-01T07:08:42;48.07;;;23.90;;
177;SDS011;77;48.792;9.032;2023-03-01T07:11:07;42.07;;;22.60;;
177;SDS011;77;48.792;9.032;2023-03-01T07:13:32;46.70;;;22.97;;
177;SDS011;77;48.792;9.032;2023-03-01T07:15:57;46.00;;;23.57;;
177;SDS011;77;48.792;9.032;2023-03-01T07:18:23;44.33;;;23.70;;
177;SDS011;77;48.792;9.032;2023-03-01T07:20:49;47.10;;;23.57;;
177;SDS011;77;48.792;9.032;2023-03-01T07:23:15;43.97;;;23.60;;
177;SDS011;77;48.792;9.032;2023-03-01T07:25:40;42.60;;;22.93;;
177;SDS011;77;48.792;9.032;2023-03-01T07:28:05;45.03;;;23.47;;
177;SDS011;77;48.792;9.032;2023-03-01T07:30:30;47.73;;;25.53;;
177;SDS011;77;48.792;9.032;2023-03-01T07:32:56;45.43;;;23.13;;
177;SDS011;77;48.792;9.032;2023-03-01T07:35:21;45.93;;;24.17;;
177;SDS011;77;48.792;9.032;2023-03-01T07:37:48;46.03;;;23.03;;
177;SDS011;77;48.792;9.032;2023-03-01T07:40:13;45.58;;;23.92;;
177;SDS011;77;48.792;9.032;2023-03-01T07:42:39;45.13;;;23.87;;
177;SDS011;77;48.792;9.032;2023-03-01T07:45:05;46.00;;;25.03;;
177;SDS011;77;48.792;9.032;2023-03-01T07:47:30;46.17;;;24.45;;
177;SDS011;77;48.792;9.032;2023-03-01T07:49:55;45.93;;;24.30;;
177;SDS011;77;48.792;9.032;2023-03-01T07:52:21;46.60;;;23.90;;
177;SDS011;77;48.792;9.032;2023-03-01T07:54:47;44.03;;;23.57;;
177;SDS011;77;48.792;9.032;2023-03-01T07:57:12;46.25;;;24.10;;
177;SDS011;77;48.792;9.032;2023-03-01T07:59:38;48.00;;;24.40;;
177;SDS011;77;48.792;9.032;2023-03-01T08:02:03;48.13;;;25.60;;
177;SDS011;77;48.792;9.032;2023-03-01T08:04:28;50.60;;;25.27;;
177;SDS011;77;48.792;9.032;2023-03-01T08:06:54;48.20;;;25.43;;
177;SDS011;77;48.792;9.032;2023-03-01T08:09:19;47.73;;;24.73;;
177;SDS011;77;48.792;9.032;2023-03-01T08:11:46;45.93;;;24.20;;
177;SDS011;77;48.792;9.032;2023-03-01T08:14:11;48.50;;;25.58;;
177;SDS011;77;48.792;9.032;2023-03-01T08:16:36;46.43;;;23.60;;
177;SDS011;77;48.792;9.032;2023-03-01T08:19:03;48.63;;;24.77;;
177;SDS011;77;48.792;9.032;2023-03-01T08:21:28;47.45;;;25.13;;
177;SDS011;77;48.792;9.032;2023-03-01T08:23:53;56.07;;;25.70;;
177;SDS011;77;48.792;9.032;2023-03-01T08:26:19;46.27;;;24.87;;
177;SDS011;77;48.792;9.032;2023-03-01T08:28:47;50.70;;;23.38;;
177;SDS011;77;48.792;9.032;2023-03-01T08:31:13;52.55;;;26.45;;
177;SDS011;77;48.792;9.032;2023-03-01T08:33:38;50.47;;;25.30;;
177;SDS011;77;48.792;9.032;2023-03-01T08:36:04;50.73;;;26.30;;
177;SDS011;77;48.792;9.032;2023-03-01T08:38:29;45.77;;;24.63;;
177;SDS011;77;48.792;9.032;2023-03-01T08:40:54;48.00;;;24.30;;
177;SDS011;77;48.792;9.032;2023-03-01T08:43:20;49.90;;;26.20;;
177;SDS011;77;48.792;9.032;2023-03-01T08:45:46;46.90;;;25.50;;
177;SDS011;77;48.792;9.032;2023-03-01T08:48:15;49.10;;;24.87;;
177;SDS011;77;48.792;9.032;2023-03-01T08:50:40;47.63;;;25.00;;
177;SDS011;77;48.792;9.032;2023-03-01T08:53:05;47.60;;;26.07;;
177;SDS011;77;48.792;9.032;2023-03-01T08:55:30;45.63;;;24.37;;
177;SDS011;77;48.792;9.032;2023-03-01T08:57:56;43.80;;;24.57;;
177;SDS011;77;48.792;9.032;2023-03-01T09:00:21;44.40;;;24.70;;
177;SDS011;77;48.792;9.032;2023-03-01T09:02:48;46.20;;;25.50;;
177;SDS011;77;48.792;9.032;2023-03-01T09:05:13;45.23;;;25.33;;
177;SDS011;77;48.792;9.032;2023-03-01T09:07:38;46.03;;;25.17;;
177;SDS011;77;48.792;9.032;2023-03-01T09:10:04;44.13;;;25.63;;
177;SDS011;77;48.792;9.032;2023-03-01T09:12:31;45.63;;;25.30;;
177;SDS011;77;48.792;9.032;2023-03-01T09:14:56;44.87;;;25.60;;
177;SDS011;77;48.792;9.032;2023-03-01T09:17:21;47.57;;;25.73;;
177;SDS011;77;48.792;9.032;2023-03-01T09:19:48;46.50;;;26.37;;
177;SDS011;77;48.792;9.032;2023-03-01T09:22:13;45.57;;;24.97;;
177;SDS011;77;48.792;9.032;2023-03-01T09:24:38;44.00;;;25.10;;
177;SDS011;77;48.792;9.032;2023-03-01T09:27:03;45.33;;;25.50;;
177;SDS011;77;48.792;9.032;2023-03-01T09:29:29;41.93;;;24.87;;
177;SDS011;77;48.792;9.032;2023-03-01T09:31:54;48.10;;;25.83;;
177;SDS011;77;48.792;9.032;2023-03-01T09:34:19;44.70;;;25.37;;
177;SDS011;77;48.792;9.032;2023-03-01T09:36:45;43.60;;;24.40;;
177;SDS011;77;48.792;9.032;2023-03-01T09:39:11;44.50;;;25.53;;
177;SDS011;77;48.792;9.032;2023-03-01T09:41:43;42.00;;;24.73;;
177;SDS011;77;48.792;9.032;2023-03-01T09:44:10;41.07;;;23.93;;
177;SDS011;77;48.792;9.032;2023-03-01T09:46:37;45.17;;;24.57;;
177;SDS011;77;48.792;9.032;2023-03-01T09:49:06;43.30;;;24.30;;
177;SDS011;77;48.792;9.032;2023-03-01T09:51:34;48.97;;;26.07;;
177;SDS011;77;48.792;9.032;2023-03-01T09:54:01;43.30;;;25.20;;
177;SDS011;77;48.792;9.032;2023-03-01T09:56:28;43.17;;;25.07;;
177;SDS011;77;48.792;9.032;2023-03-01T09:58:56;44.83;;;25.17;;
177;SDS011;77;48.792;9.032;2023-03-01T10:01:27;45.23;;;26.00;;
177;SDS011;77;48.792;9.032;2023-03-01T10:03:58;43.20;;;24.70;;
177;SDS011;77;48.792;9.032;2023-03-01T10:06:25;45.90;;;25.03;;
177;SDS011;77;48.792;9.032;2023-03-01T10:08:51;42.63;;;24.33;;
177;SDS011;77;48.792;9.032;2023-03-01T10:11:21;43.10;;;24.73;;
177;SDS011;77;48.792;9.032;2023-03-01T10:13:48;40.60;;;23.90;;
177;SDS011;77;48.792;9.032;2023-03-01T10:16:16;41.37;;;24.70;;
177;SDS011;77;48.792;9.032;2023-03-01T10:18:42;38.63;;;23.00;;
177;SDS011;77;48.792;9.032;2023-03-01T10:21:12;41.70;;;25.50;;
177;SDS011;77;48.792;9.032;2023-03-01T10:23:38;39.47;;;24.40;;
177;SDS011;77;48.792;9.032;2023-03-01T10:26:07;45.20;;;24.67;;
177;SDS011;77;48.792;9.032;2023-03-01T10:28:39;41.87;;;24.13;;
177;SDS011;77;48.792;9.032;2023-03-01T10:31:08;41.43;;;25.03;;
177;SDS011;77;48.792;9.032;2023-03-01T10:33:37;40.87;;;24.67;;
177;SDS011;77;48.792;9.032;2023-03-01T10:36:03;40.37;;;24.70;;
177;SDS011;77;48.792;9.032;2023-03-01T10:38:29;45.57;;;25.10;;
177;SDS011;77;48.792;9.032;2023-03-01T10:40:55;41.07;;;24.43;;
177;SDS011;77;48.792;9.032;2023-03-01T10:43:21;39.43;;;24.10;;
177;SDS011;77;48.792;9.032;2023-03-01T10:45:48;44.83;;;24.93;;
177;SDS011;77;48.792;9.032;2023-03-01T10:48:14;40.70;;;24.30;;
177;SDS011;77;48.792;9.032;2023-03-01T10:50:39;38.17;;;24.77;;
177;SDS011;77;48.792;9.032;2023-03-01T10:53:05;40.60;;;24.90;;
177;SDS011;77;48.792;9.032;2023-03-01T10:55:41;39.17;;;24.60;;
177;SDS011;77;48.792;9.032;2023-03-01T10:58:07;39.03;;;24.50;;
177;SDS011;77;48.792;9.032;2023-03-01T11:00:33;41.23;;;24.50;;
177;SDS011;77;48.792;9.032;2023-03-01T11:03:08;38.57;;;23.37;;
177;SDS011;77;48.792;9.032;2023-03-01T11:05:35;39.00;;;23.83;;
177;SDS011;77;48.792;9.032;2023-03-01T11:08:00;39.23;;;24.70;;
177;SDS011;77;48.792;9.032;2023-03-01T11:10:26;39.50;;;23.87;;
177;SDS011;77;48.792;9.032;2023-03-01T11:12:52;37.43;;;23.30;;
177;SDS011;77;48.792;9.032;2023-03-01T11:15:22;37.20;;;23.30;;
177;SDS011;77;48.792;9.032;2023-03-01T11:17:47;41.03;;;24.73;;
177;SDS011;77;48.792;9.032;2023-03-01T11:20:17;38.90;;;23.67;;
177;SDS011;77;48.792;9.032;2023-03-01T11:22:46;38.70;;;24.00;;
177;SDS011;77;48.792;9.032;2023-03-01T11:25:12;45.10;;;24.40;;
177;SDS011;77;48.792;9.032;2023-03-01T11:27:39;37.20;;;24.17;;
177;SDS011;77;48.792;9.032;2023-03-01T11:30:07;41.07;;;22.80;;
177;SDS011;77;48.792;9.032;2023-03-01T11:32:38;36.37;;;23.60;;
177;SDS011;77;48.792;9.032;2023-03-01T11:35:07;33.03;;;21.73;;
177;SDS011;77;48.792;9.032;2023-03-01T11:37:38;36.47;;;22.70;;
177;SDS011;77;48.792;9.032;2023-03-01T11:40:12;33.23;;;22.40;;
177;SDS011;77;48.792;9.032;2023-03-01T11:42:42;35.90;;;22.50;;
177;SDS011;77;48.792;9.032;2023-03-01T11:45:09;36.17;;;23.07;;
177;SDS011;77;48.792;9.032;2023-03-01T11:47:39;33.07;;;21.40;;
177;SDS011;77;48.792;9.032;2023-03-01T11:50:15;32.67;;;21.93;;
177;SDS011;77;48.792;9.032;2023-03-01T11:52:46;32.53;;;21.40;;
177;SDS011;77;48.792;9.032;2023-03-01T11:55:17;33.73;;;21.90;;
177;SDS011;77;48.792;9.032;2023-03-01T11:57:48;33.07;;;21.27;;
177;SDS011;77;48.792;9.032;2023-03-01T12:00:21;33.20;;;22.33;;
177;SDS011;77;48.792;9.032;2023-03-01T12:02:53;33.60;;;21.90;;
177;SDS011;77;48.792;9.032;2023-03-01T12:05:25;33.37;;;21.37;;
177;SDS011;77;48.792;9.032;2023-03-01T12:07:56;33.60;;;21.50;;
177;SDS011;77;48.792;9.032;2023-03-01T12:10:26;32.10;;;20.50;;
177;SDS011;77;48.792;9.032;2023-03-01T12:15:44;31.60;;;19.73;;
177;SDS011;77;48.792;9.032;2023-03-01T12:18:24;32.33;;;20.87;;
177;SDS011;77;48.792;9.032;2023-03-01T12:20:55;29.47;;;20.30;;
177;SDS011;77;48.792;9.032;2023-03-01T12:23:34;29.90;;;19.33;;
177;SDS011;77;48.792;9.032;2023-03-01T12:26:05;33.03;;;19.00;;
177;SDS011;77;48.792;9.032;2023-03-01T12:28:36;30.97;;;19.10;;
177;SDS011;77;48.792;9.032;2023-03-01T12:33:51;31.20;;;19.33;;
177;SDS011;77;48.792;9.032;2023-03-01T12:36:25;33.20;;;21.27;;
177;SDS011;77;48.792;9.032;2023-03-01T12:38:59;31.50;;;20.43;;
177;SDS011;77;48.792;9.032;2023-03-01T12:44:26;30.67;;;20.57;;
177;SDS011;77;48.792;9.032;2023-03-01T12:46:58;29.90;;;19.80;;
177;SDS011;77;48.792;9.032;2023-03-01T12:49:25;30.10;;;20.70;;
177;SDS011;77;48.792;9.032;2023-03-01T12:51:53;31.43;;;20.70;;
177;SDS011;77;48.792;9.032;2023-03-01T12:54:22;35.20;;;22.43;;
177;SDS011;77;48.792;9.032;2023-03-01T12:56:50;31.00;;;20.00;;
177;SDS011;77;48.792;9.032;2023-03-01T12:59:17;33.27;;;21.47;;
177;SDS011;77;48.792;9.032;2023-03-01T13:01:45;30.47;;;20.67;;
177;SDS011;77;48.792;9.032;2023-03-01T13:04:18;32.33;;;20.70;;
177;SDS011;77;48.792;9.032;2023-03-01T13:06:47;33.20;;;21.30;;
177;SDS011;77;48.792;9.032;2023-03-01T13:09:18;35.07;;;21.20;;
177;SDS011;77;48.792;9.032;2023-03-01T13:11:46;33.30;;;21.17;;
177;SDS011;77;48.792;9.032;2023-03-01T13:16:51;33.17;;;20.53;;
177;SDS011;77;48.792;9.032;2023-03-01T13:19:17;32.70;;;20.03;;
177;SDS011;77;48.792;9.032;2023-03-01T13:21:43;31.40;;;20.30;;
177;SDS011;77;48.792;9.032;2023-03-01T13:24:23;34.03;;;20.60;;
177;SDS011;77;48.792;9.032;2023-03-01T13:29:45;31.97;;;20.77;;
177;SDS011;77;48.792;9.032;2023-03-01T13:32:18;32.90;;;21.23;;
177;SDS011;77;48.792;9.032;2023-03-01T13:34:51;32.23;;;21.17;;
177;SDS011;77;48.792;9.032;2023-03-01T13:37:26;35.27;;;22.00;;
177;SDS011;77;48.792;9.032;2023-03-01T13:39:52;32.27;;;21.67;;
177;SDS011;77;48.792;9.032;2023-03-01T13:45:19;36.83;;;21.17;;
177;SDS011;77;48.792;9.032;2023-03-01T13:47:44;31.90;;;20.40;;
177;SDS011;77;48.792;9.032;2023-03-01T13:50:16;29.40;;;20.43;;
177;SDS011;77;48.792;9.032;2023-03-01T13:52:43;30.00;;;20.67;;
177;SDS011;77;48.792;9.032;2023-03-01T13:55:15;32.17;;;22.30;;
177;SDS011;77;48.792;9.032;2023-03-01T13:57:41;32.00;;;21.83;;
177;SDS011;77;48.792;9.032;2023-03-01T14:03:00;34.80;;;22.07;;
177;SDS011;77;48.792;9.032;2023-03-01T14:05:25;31.37;;;20.77;;
177;SDS011;77;48.792;9.032;2023-03-01T14:07:50;31.70;;;20.17;;
177;SDS011;77;48.792;9.032;2023-03-01T14:10:16;27.20;;;19.50;;
177;SDS011;77;48.792;9.032;2023-03-01T14:12:43;30.80;;;20.03;;
177;SDS011;77;48.792;9.032;2023-03-01T14:15:14;31.10;;;20.00;;
177;SDS011;77;48.792;9.032;2023-03-01T14:17:42;30.03;;;20.07;;
177;SDS011;77;48.792;9.032;2023-03-01T14:20:13;29.77;;;19.90;;
177;SDS011;77;48.792;9.032;2023-03-01T14:22:40;30.03;;;21.30;;
177;SDS011;77;48.792;9.032;2023-03-01T14:25:16;27.80;;;20.03;;
177;SDS011;77;48.792;9.032;2023-03-01T14:27:42;27.33;;;19.40;;
177;SDS011;77;48.792;9.032;2023-03-01T14:30:10;28.43;;;20.43;;
177;SDS011;77;48.792;9.032;2023-03-01T14:32:36;26.90;;;19.87;;
177;SDS011;77;48.792;9.032;2023-03-01T14:35:01;28.43;;;19.80;;
177;SDS011;77;48.792;9.032;2023-03-01T14:37:29;29.37;;;20.03;;
177;SDS011;77;48.792;9.032;2023-03-01T14:39:55;28.00;;;20.27;;
177;SDS011;77;48.792;9.032;2023-03-01T14:42:21;29.67;;;20.40;;
177;SDS011;77;48.792;9.032;2023-03-01T14:44:48;28.53;;;20.10;;
177;SDS011;77;48.792;9.032;2023-03-01T14:47:15;28.07;;;19.90;;
177;SDS011;77;48.792;9.032;2023-03-01T14:49:44;28.47;;;20.83;;
177;SDS011;77;48.792;9.032;2023-03-01T14:52:17;28.60;;;20.63;;
177;SDS011;77;48.792;9.032;2023-03-01T14:54:46;31.27;;;21.07;;
177;SDS011;77;48.792;9.032;2023-03-01T14:57:13;28.77;;;20.20;;
177;SDS011;77;48.792;9.032;2023-03-01T14:59:39;32.40;;;22.17;;
177;SDS011;77;48.792;9.032;2023-03-01T15:02:08;36.83;;;21.80;;
177;SDS011;77;48.792;9.032;2023-03-01T15:04:35;30.00;;;20.70;;
177;SDS011;77;48.792;9.032;2023-03-01T15:07:01;32.93;;;21.50;;
177;SDS011;77;48.792;9.032;2023-03-01T15:09:28;31.50;;;21.23;;
177;SDS011;77;48.792;9.032;2023-03-01T15:11:54;33.00;;;21.70;;
177;SDS011;77;48.792;9.032;2023-03-01T15:14:26;31.57;;;21.27;;
177;SDS011;77;48.792;9.032;2023-03-01T15:16:52;34.40;;;22.33;;
177;SDS011;77;48.792;9.032;2023-03-01T15:19:17;32.50;;;21.27;;
177;SDS011;77;48.792;9.032;2023-03-01T15:21:43;33.23;;;22.10;;
177;SDS011;77;48.792;9.032;2023-03-01T15:24:16;31.20;;;20.80;;
177;SDS011;77;48.792;9.032;2023-03-01T15:26:42;33.37;;;21.80;;
177;SDS011;77;48.792;9.032;2023-03-01T15:29:14;30.13;;;21.10;;
177;SDS011;77;48.792;9.032;2023-03-01T15:31:40;31.77;;;20.70;;
177;SDS011;77;48.792;9.032;2023-03-01T15:34:21;32.20;;;20.90;;
177;SDS011;77;48.792;9.032;2023-03-01T15:36:46;34.10;;;22.40;;
177;SDS011;77;48.792;9.032;2023-03-01T15:39:31;35.40;;;22.70;;
177;SDS011;77;48.792;9.032;2023-03-01T15:41:57;33.27;;;21.90;;
177;SDS011;77;48.792;9.032;2023-03-01T15:44:26;36.37;;;22.20;;
177;SDS011;77;48.792;9.032;2023-03-01T15:46:52;35.70;;;22.43;;
177;SDS011;77;48.792;9.032;2023-03-01T15:49:21;37.17;;;22.70;;
177;SDS011;77;48.792;9.032;2023-03-01T15:51:49;36.97;;;22.27;;